Time;durP1;ratioP1;P1;durP2;ratioP2;P2;SDS_P1;SDS_P2;PMS_P1;PMS_P2;Temp;Humidity;BMP_temperature;BMP_pressure;BME280_temperature;BME280_humidity;BME280_pressure;Samples;Min_cycle;Max_cycle;Signal;HPM_P1;HPM_P2
2022/03/22 00:00:36;;;;;;;6.45;5.82;;;18.00;37.50;;;;;;6187197;23;20525;-71
2022/03/22 00:03:05;;;;;;;6.30;5.70;;;18.00;37.50;;;;;;6186191;23;20172;-71
2022/03/22 00:05:33;;;;;;;6.50;6.00;;;17.90;37.60;;;;;;6160983;23;20275;-72
2022/03/22 00:08:01;;;;;;;7.38;6.10;;;17.90;37.60;;;;;;6185491;23;20176;-71
2022/03/22 00:10:28;;;;;;;6.25;5.75;;;17.90;37.50;;;;;;6185391;23;20634;-71
2022/03/22 00:12:55;;;;;;;6.70;6.10;;;17.90;37.60;;;;;;6185560;23;20185;-71
2022/03/22 00:15:23;;;;;;;6.57;5.90;;;17.90;37.60;;;;;;6160893;23;20250;-71
2022/03/22 00:17:50;;;;;;;6.43;5.82;;;17.80;37.40;;;;;;6185646;23;20176;-71
2022/03/22 00:20:18;;;;;;;7.90;6.53;;;17.80;37.50;;;;;;6160714;23;20192;-71
2022/03/22 00:22:45;;;;;;;6.90;6.30;;;17.80;37.50;;;;;;6160729;23;20172;-71
2022/03/22 00:25:15;;;;;;;7.03;6.40;;;17.80;37.70;;;;;;6160557;23;20584;-71
2022/03/22 00:27:53;;;;;;;6.78;6.07;;;17.80;37.60;;;;;;6160734;23;20168;-72
2022/03/22 00:30:21;;;;;;;7.05;6.35;;;17.70;37.60;;;;;;6186759;23;20215;-71
2022/03/22 00:32:54;;;;;;;6.45;5.85;;;17.80;37.70;;;;;;6185609;23;20183;-72
2022/03/22 00:35:24;;;;;;;6.72;6.13;;;17.70;37.50;;;;;;6160901;23;20156;-71
2022/03/22 00:37:53;;;;;;;7.13;6.45;;;17.70;37.60;;;;;;6160390;23;20173;-71
2022/03/22 00:40:20;;;;;;;7.38;6.68;;;17.70;37.70;;;;;;6186935;23;20184;-71
2022/03/22 00:42:48;;;;;;;6.90;6.30;;;17.70;37.60;;;;;;6160749;23;20603;-71
2022/03/22 00:45:17;;;;;;;6.28;5.78;;;17.60;37.80;;;;;;6160395;23;20271;-71
2022/03/22 00:47:45;;;;;;;7.15;6.55;;;17.60;37.70;;;;;;6160942;23;20179;-71
2022/03/22 00:50:13;;;;;;;6.72;6.13;;;17.60;37.80;;;;;;6161250;23;20274;-71
2022/03/22 00:52:41;;;;;;;6.88;6.15;;;17.60;37.80;;;;;;6161189;23;20200;-71
2022/03/22 00:55:09;;;;;;;6.55;5.95;;;17.60;37.80;;;;;;6160418;23;20184;-71
2022/03/22 00:57:37;;;;;;;6.55;5.95;;;17.60;37.70;;;;;;6185255;23;20549;-71
2022/03/22 01:00:06;;;;;;;7.55;6.85;;;17.60;38.30;;;;;;6186611;23;20188;-71
2022/03/22 01:02:35;;;;;;;6.65;6.05;;;17.50;37.80;;;;;;6160502;23;20641;-71
2022/03/22 01:05:04;;;;;;;7.15;6.53;;;17.50;37.80;;;;;;6184991;23;20717;-71
2022/03/22 01:07:33;;;;;;;6.30;5.80;;;17.50;37.80;;;;;;6160579;23;20616;-71
2022/03/22 01:10:02;;;;;;;7.13;6.47;;;17.50;37.80;;;;;;6185255;23;20196;-71
2022/03/22 01:12:30;;;;;;;6.75;6.22;;;17.50;37.80;;;;;;6185031;23;20180;-71
2022/03/22 01:14:58;;;;;;;7.10;6.40;;;17.40;37.90;;;;;;6185886;23;20195;-71
2022/03/22 01:17:26;;;;;;;6.95;6.35;;;17.50;37.80;;;;;;6186510;23;20190;-71
2022/03/22 01:19:53;;;;;;;6.88;6.15;;;17.50;37.80;;;;;;6186613;23;20525;-71
2022/03/22 01:22:20;;;;;;;6.85;6.20;;;17.50;37.90;;;;;;6186683;23;20164;-71
2022/03/22 01:24:48;;;;;;;6.80;6.20;;;17.40;37.80;;;;;;6186346;23;20242;-72
2022/03/22 01:27:16;;;;;;;7.13;6.53;;;17.40;37.80;;;;;;6184827;23;20194;-71
2022/03/22 01:29:44;;;;;;;7.32;6.63;;;17.30;37.60;;;;;;6159988;23;20203;-71
2022/03/22 01:32:10;;;;;;;6.97;6.38;;;17.40;37.80;;;;;;6184758;23;20179;-71
2022/03/22 01:34:38;;;;;;;6.93;6.25;;;17.40;37.90;;;;;;6185777;23;20172;-71
2022/03/22 01:37:05;;;;;;;6.53;6.03;;;17.40;37.90;;;;;;6160441;23;20176;-71
2022/03/22 01:39:32;;;;;;;6.68;6.07;;;17.40;37.90;;;;;;6185741;23;20278;-70
2022/03/22 01:42:00;;;;;;;7.10;6.50;;;17.30;37.80;;;;;;6160330;23;20182;-71
2022/03/22 01:44:29;;;;;;;7.45;6.75;;;17.30;37.80;;;;;;6159916;23;20284;-71
2022/03/22 01:46:59;;;;;;;7.38;6.68;;;17.30;37.90;;;;;;6159779;23;20615;-71
2022/03/22 01:49:27;;;;;;;7.68;6.97;;;17.30;37.90;;;;;;6186201;23;20668;-71
2022/03/22 01:51:54;;;;;;;7.00;6.40;;;17.30;38.00;;;;;;6159766;23;20176;-71
2022/03/22 01:54:21;;;;;;;6.53;5.93;;;17.20;37.80;;;;;;6186230;23;20167;-72
2022/03/22 01:56:49;;;;;;;7.00;6.40;;;17.20;37.90;;;;;;6184933;23;20164;-71
2022/03/22 01:59:16;;;;;;;6.90;6.30;;;17.20;38.60;;;;;;6184485;23;20192;-71
2022/03/22 02:07:15;;;;;;;6.93;6.32;;;17.10;37.90;;;;;;6186246;23;20149;-71
2022/03/22 02:09:42;;;;;;;6.88;6.28;;;17.10;37.90;;;;;;6159761;23;20201;-71
2022/03/22 02:12:10;;;;;;;6.78;6.18;;;17.10;38.20;;;;;;6159752;23;20171;-71
2022/03/22 02:14:37;;;;;;;7.10;6.50;;;17.10;38.00;;;;;;6159648;23;20175;-71
2022/03/22 02:17:09;;;;;;;7.18;6.57;;;17.10;38.30;;;;;;6160111;23;20171;-71
2022/03/22 02:19:40;;;;;;;6.93;6.32;;;17.10;38.00;;;;;;6159619;23;20658;-71
2022/03/22 02:22:09;;;;;;;7.32;6.63;;;17.00;37.90;;;;;;6184533;23;20183;-71
2022/03/22 02:24:38;;;;;;;6.65;6.07;;;17.00;38.10;;;;;;6159971;23;20199;-71
2022/03/22 02:27:07;;;;;;;6.82;6.22;;;17.00;38.00;;;;;;6184859;23;20168;-72
2022/03/22 02:29:34;;;;;;;6.60;6.10;;;17.00;38.00;;;;;;6184658;23;20216;-71
2022/03/22 02:32:01;;;;;;;7.18;6.57;;;17.00;38.20;;;;;;6159406;23;20272;-71
2022/03/22 02:34:28;;;;;;;7.38;6.78;;;17.00;38.10;;;;;;6160010;23;20194;-71
2022/03/22 02:36:55;;;;;;;6.78;6.18;;;17.00;38.20;;;;;;6184444;23;20176;-71
2022/03/22 02:39:22;;;;;;;6.88;6.28;;;17.00;38.10;;;;;;6184342;23;20204;-71
2022/03/22 02:41:51;;;;;;;7.30;6.60;;;16.90;37.90;;;;;;6184420;23;20623;-71
2022/03/22 02:44:19;;;;;;;7.13;6.05;;;16.90;38.00;;;;;;6185111;23;20176;-72
2022/03/22 02:46:46;;;;;;;7.28;6.57;;;16.90;38.00;;;;;;6161515;23;20549;-71
2022/03/22 02:49:13;;;;;;;7.55;6.90;;;16.90;38.10;;;;;;6161269;23;20192;-71
2022/03/22 02:51:40;;;;;;;7.18;6.57;;;16.90;38.00;;;;;;6187615;23;20168;-71
2022/03/22 02:54:07;;;;;;;6.93;6.32;;;16.90;38.00;;;;;;6186042;23;20645;-71
2022/03/22 02:56:34;;;;;;;6.95;6.35;;;16.90;38.10;;;;;;6161334;23;20230;-71
2022/03/22 02:59:02;;;;;;;7.28;6.68;;;16.90;38.00;;;;;;6187732;23;20160;-71
2022/03/22 03:01:32;;;;;;;6.80;6.30;;;16.80;38.00;;;;;;6186281;23;20688;-71
2022/03/22 03:04:00;;;;;;;7.35;6.65;;;16.80;38.00;;;;;;6186601;23;20172;-71
2022/03/22 03:06:28;;;;;;;7.38;6.78;;;16.80;38.00;;;;;;6161123;23;20247;-71
2022/03/22 03:08:57;;;;;;;7.68;6.93;;;16.80;38.00;;;;;;6187480;23;20234;-71
2022/03/22 03:11:26;;;;;;;7.03;6.43;;;16.80;38.00;;;;;;6161342;23;20180;-71
2022/03/22 03:16:40;;;;;;;6.97;6.28;;;16.80;38.60;;;;;;6161394;23;20618;-71
2022/03/22 03:19:07;;;;;;;7.55;6.85;;;16.80;38.70;;;;;;6188472;23;20188;-71
2022/03/22 03:21:35;;;;;;;7.25;6.65;;;16.70;38.00;;;;;;6161511;23;20180;-71
2022/03/22 03:24:02;;;;;;;7.25;6.65;;;16.70;38.00;;;;;;6185814;23;20568;-71
2022/03/22 03:26:29;;;;;;;7.18;6.57;;;16.70;38.00;;;;;;6161075;23;20212;-71
2022/03/22 03:28:57;;;;;;;6.57;6.07;;;16.70;38.00;;;;;;6185714;23;20593;-72
2022/03/22 03:31:25;;;;;;;7.38;6.68;;;16.70;38.00;;;;;;6161106;23;20199;-71
2022/03/22 03:33:54;;;;;;;7.25;6.45;;;16.70;37.90;;;;;;6185900;23;20226;-71
2022/03/22 03:36:22;;;;;;;6.82;6.30;;;16.70;38.10;;;;;;6161336;23;20168;-71
2022/03/22 03:38:50;;;;;;;7.32;6.65;;;16.70;38.20;;;;;;6160926;23;20176;-71
2022/03/22 03:47:03;;;;;;;6.85;6.25;;;16.60;38.20;;;;;;6161266;23;20605;-71
2022/03/22 03:49:35;;;;;;;7.57;6.90;;;16.60;38.10;;;;;;6160922;23;20198;-72
2022/03/22 03:52:02;;;;;;;6.88;6.28;;;16.60;38.00;;;;;;6160708;23;20623;-71
2022/03/22 03:54:29;;;;;;;7.25;6.60;;;16.60;38.20;;;;;;6185439;23;20175;-71
2022/03/22 03:56:58;;;;;;;6.95;6.43;;;16.60;38.00;;;;;;6162150;23;20188;-71
2022/03/22 03:59:27;;;;;;;7.10;6.50;;;16.60;38.00;;;;;;6186453;23;20195;-71
2022/03/22 04:01:54;;;;;;;7.10;6.47;;;16.60;38.30;;;;;;6185400;23;20234;-71
2022/03/22 04:04:21;;;;;;;7.60;6.90;;;16.60;38.20;;;;;;6185563;23;20176;-71
2022/03/22 04:06:49;;;;;;;7.28;6.68;;;16.60;38.40;;;;;;6185617;23;20198;-71
2022/03/22 04:09:16;;;;;;;7.55;6.85;;;16.50;38.10;;;;;;6186427;23;20192;-71
2022/03/22 04:11:43;;;;;;;7.00;6.40;;;16.50;38.20;;;;;;6186198;23;20176;-71
2022/03/22 04:14:12;;;;;;;7.97;7.28;;;16.50;38.10;;;;;;6187813;23;20169;-71
2022/03/22 04:16:39;;;;;;;7.82;7.18;;;16.50;38.30;;;;;;6186528;23;20171;-71
2022/03/22 04:19:07;;;;;;;7.07;6.38;;;16.50;38.40;;;;;;6185631;23;20198;-71
2022/03/22 04:21:35;;;;;;;8.30;7.25;;;16.50;38.30;;;;;;6185982;23;20183;-71
2022/03/22 04:24:05;;;;;;;7.10;6.50;;;16.40;38.30;;;;;;6185697;23;20176;-71
2022/03/22 04:26:33;;;;;;;7.60;6.90;;;16.50;38.20;;;;;;6160966;23;20198;-71
2022/03/22 04:34:31;;;;;;;7.80;7.10;;;16.40;38.00;;;;;;6160580;23;20549;-71
2022/03/22 04:36:58;;;;;;;7.68;6.88;;;16.50;38.10;;;;;;6160323;23;20164;-71
2022/03/22 04:39:26;;;;;;;7.10;6.50;;;16.50;38.20;;;;;;6160230;23;20199;-71
2022/03/22 04:41:54;;;;;;;7.03;6.43;;;16.50;38.00;;;;;;6185219;23;20235;-71
2022/03/22 04:44:21;;;;;;;7.38;6.75;;;16.50;38.10;;;;;;6186946;23;20615;-71
2022/03/22 04:46:48;;;;;;;7.15;6.55;;;16.40;38.10;;;;;;6187430;23;20184;-70
2022/03/22 04:49:16;;;;;;;6.90;6.30;;;16.50;38.00;;;;;;6186959;23;20666;-71
2022/03/22 04:57:15;;;;;;;7.38;6.78;;;16.50;38.00;;;;;;6187319;23;20168;-71
2022/03/22 04:59:43;;;;;;;7.53;6.80;;;16.50;38.00;;;;;;6185591;23;20279;-70
2022/03/22 05:02:11;;;;;;;8.10;7.30;;;16.50;38.00;;;;;;6160524;23;20201;-71
2022/03/22 05:04:37;;;;;;;8.13;7.43;;;16.40;38.00;;;;;;6186515;23;20251;-71
2022/03/22 05:07:05;;;;;;;8.00;7.30;;;16.50;38.10;;;;;;6186208;23;20276;-71
2022/03/22 05:09:34;;;;;;;8.15;7.47;;;16.40;37.90;;;;;;6160153;23;20192;-72
2022/03/22 05:12:02;;;;;;;7.72;7.07;;;16.40;37.80;;;;;;6186666;23;20483;-71
2022/03/22 05:14:29;;;;;;;7.82;7.13;;;16.50;38.00;;;;;;6184949;23;20176;-71
2022/03/22 05:16:58;;;;;;;8.00;7.32;;;16.50;37.90;;;;;;6160103;23;20540;-71
2022/03/22 05:19:25;;;;;;;8.18;7.38;;;16.50;38.00;;;;;;6184837;23;20280;-71
2022/03/22 05:21:53;;;;;;;7.32;6.70;;;16.50;37.90;;;;;;6185251;23;20569;-71
2022/03/22 05:24:20;;;;;;;7.82;7.15;;;16.50;37.80;;;;;;6186353;23;20505;-71
2022/03/22 05:26:48;;;;;;;7.65;6.95;;;16.50;37.90;;;;;;6186694;23;20515;-71
2022/03/22 05:29:17;;;;;;;7.68;6.97;;;16.60;37.80;;;;;;6186191;23;20188;-71
2022/03/22 05:31:45;;;;;;;7.70;7.00;;;16.60;37.70;;;;;;6159665;23;20176;-71
2022/03/22 05:34:12;;;;;;;8.27;7.50;;;16.60;37.70;;;;;;6185992;23;20164;-72
2022/03/22 05:36:40;;;;;;;7.57;6.78;;;16.60;37.70;;;;;;6159876;23;20168;-72
2022/03/22 05:39:07;;;;;;;8.10;7.40;;;16.60;37.70;;;;;;6186641;23;20192;-71
2022/03/22 05:44:35;;;;;;;7.47;6.88;;;16.70;37.60;;;;;;6186418;23;20207;-70
2022/03/22 05:47:02;;;;;;;8.23;7.53;;;16.70;37.40;;;;;;6159691;23;20595;-70
2022/03/22 05:49:29;;;;;;;8.73;7.93;;;16.70;37.30;;;;;;6159893;23;20212;-70
2022/03/22 05:51:57;;;;;;;8.10;7.40;;;16.70;37.30;;;;;;6159930;23;20184;-70
2022/03/22 05:54:24;;;;;;;8.35;7.55;;;16.80;37.50;;;;;;6185887;23;20174;-70
2022/03/22 05:56:51;;;;;;;7.63;6.93;;;16.80;37.70;;;;;;6160121;23;20554;-69
2022/03/22 05:59:18;;;;;;;7.85;7.25;;;16.80;37.60;;;;;;6159341;23;20192;-70
2022/03/22 06:01:46;;;;;;;8.52;7.72;;;16.90;37.60;;;;;;6160198;23;20176;-70
2022/03/22 06:04:14;;;;;;;7.93;7.10;;;16.90;37.50;;;;;;6159509;23;20246;-69
2022/03/22 06:06:41;;;;;;;7.90;7.20;;;16.90;37.30;;;;;;6159486;23;20191;-71
2022/03/22 06:09:08;;;;;;;8.10;7.15;;;16.90;37.50;;;;;;6159479;23;20195;-70
2022/03/22 06:11:35;;;;;;;8.27;7.50;;;16.90;37.30;;;;;;6186059;23;20191;-70
2022/03/22 06:14:03;;;;;;;8.07;7.32;;;17.00;37.50;;;;;;6160195;23;20172;-71
2022/03/22 06:16:31;;;;;;;8.88;8.00;;;17.00;37.70;;;;;;6167873;23;20568;-71
2022/03/22 06:18:59;;;;;;;8.02;7.32;;;17.00;37.50;;;;;;6160973;23;20180;-71
2022/03/22 06:21:27;;;;;;;8.10;7.40;;;17.00;37.80;;;;;;6159994;23;20180;-71
2022/03/22 06:23:55;;;;;;;8.05;6.97;;;17.10;37.90;;;;;;6159874;23;20195;-70
2022/03/22 06:26:22;;;;;;;7.90;7.20;;;17.10;38.30;;;;;;6159733;23;20198;-71
2022/03/22 06:28:49;;;;;;;8.13;7.32;;;17.10;37.70;;;;;;6159508;23;20180;-71
2022/03/22 06:31:16;;;;;;;8.63;7.68;;;17.10;37.60;;;;;;6186017;23;20505;-71
2022/03/22 06:33:44;;;;;;;8.40;7.60;;;17.20;37.50;;;;;;6159712;23;20697;-71
2022/03/22 06:36:12;;;;;;;7.93;7.22;;;17.20;37.50;;;;;;6186301;23;20167;-71
2022/03/22 06:38:39;;;;;;;8.15;7.25;;;17.20;37.30;;;;;;6159427;23;20176;-70
2022/03/22 06:41:07;;;;;;;7.70;7.00;;;17.20;37.30;;;;;;6159727;23;20279;-71
2022/03/22 06:43:34;;;;;;;8.02;7.32;;;17.30;37.30;;;;;;6185871;23;20183;-71
2022/03/22 06:46:01;;;;;;;8.63;7.78;;;17.30;37.10;;;;;;6159352;23;20188;-73
2022/03/22 06:48:31;;;;;;;8.70;7.90;;;17.30;36.90;;;;;;6187472;23;20512;-73
2022/03/22 06:50:59;;;;;;;9.27;8.40;;;17.30;36.40;;;;;;6159696;23;20219;-73
2022/03/22 06:53:27;;;;;;;9.45;8.38;;;17.40;36.30;;;;;;6159584;23;20297;-73
2022/03/22 06:55:54;;;;;;;8.73;7.70;;;17.50;36.10;;;;;;6186232;23;20545;-73
2022/03/22 06:58:24;;;;;;;8.18;7.47;;;17.60;36.00;;;;;;6186508;23;20622;-73
2022/03/22 07:00:54;;;;;;;8.30;7.60;;;17.80;36.00;;;;;;6160433;23;20203;-73
2022/03/22 07:03:21;;;;;;;9.05;8.25;;;17.90;35.80;;;;;;6160684;23;20518;-72
2022/03/22 07:05:48;;;;;;;8.50;7.70;;;18.10;35.30;;;;;;6187208;23;20165;-73
2022/03/22 07:08:16;;;;;;;9.02;8.15;;;18.20;35.30;;;;;;6160095;23;20168;-73
2022/03/22 07:11:47;;;;;;;8.18;7.38;;;18.40;35.10;;;;;;6159899;23;20192;-72
2022/03/22 07:13:33;;;;;;;7.78;7.13;;;18.50;35.20;;;;;;6159709;23;20631;-73
2022/03/22 07:16:01;;;;;;;11.05;7.97;;;18.70;34.90;;;;;;6159989;23;20172;-73
2022/03/22 07:18:28;;;;;;;8.73;7.93;;;18.90;34.30;;;;;;6159421;23;20202;-73
2022/03/22 07:20:55;;;;;;;8.88;8.02;;;19.20;34.20;;;;;;6159297;23;20191;-73
2022/03/22 07:23:23;;;;;;;9.10;8.25;;;19.40;33.80;;;;;;6159434;23;20275;-73
2022/03/22 07:25:51;;;;;;;10.73;8.57;;;19.60;33.50;;;;;;6159330;23;20227;-73
2022/03/22 07:28:18;;;;;;;9.05;8.23;;;19.80;33.00;;;;;;6160351;23;20255;-73
2022/03/22 07:30:45;;;;;;;10.13;9.13;;;19.90;33.00;;;;;;6160706;23;20196;-73
2022/03/22 07:33:13;;;;;;;10.02;9.13;;;20.10;32.80;;;;;;6162119;23;20179;-73
2022/03/22 07:35:41;;;;;;;10.52;9.55;;;20.20;32.50;;;;;;6188411;23;20175;-73
2022/03/22 07:38:08;;;;;;;8.63;7.85;;;20.40;32.30;;;;;;6161420;23;20251;-73
2022/03/22 07:40:35;;;;;;;9.43;8.45;;;20.50;32.20;;;;;;6161266;23;20194;-73
2022/03/22 07:43:05;;;;;;;9.82;8.93;;;20.60;32.50;;;;;;6161340;23;20487;-73
2022/03/22 07:45:33;;;;;;;9.07;8.20;;;20.80;31.80;;;;;;6161385;23;20179;-73
2022/03/22 07:48:00;;;;;;;9.63;8.73;;;20.90;31.60;;;;;;6164007;23;20271;-73
2022/03/22 07:53:12;;;;;;;10.40;8.73;;;21.10;31.30;;;;;;6187845;23;20144;-73
2022/03/22 07:55:40;;;;;;;9.55;8.75;;;21.30;31.40;;;;;;6177700;23;20196;-74
2022/03/22 07:58:09;;;;;;;9.30;8.40;;;21.30;31.00;;;;;;6213500;23;20162;-72
2022/03/22 08:00:37;;;;;;;9.20;8.30;;;21.40;31.00;;;;;;6185603;23;20199;-73
2022/03/22 08:03:08;;;;;;;9.13;8.25;;;21.50;30.80;;;;;;6162086;23;20172;-73
2022/03/22 08:05:35;;;;;;;9.80;8.75;;;21.60;30.60;;;;;;6161725;23;20168;-73
2022/03/22 08:08:02;;;;;;;10.07;9.07;;;21.70;30.50;;;;;;6161790;23;20192;-73
2022/03/22 08:10:31;;;;;;;8.75;7.95;;;21.70;30.50;;;;;;6187759;23;20181;-73
2022/03/22 08:12:59;;;;;;;8.20;7.40;;;21.80;30.40;;;;;;6161432;23;20529;-74
2022/03/22 08:15:27;;;;;;;8.93;8.02;;;21.90;30.40;;;;;;6161456;23;20168;-73
2022/03/22 08:17:54;;;;;;;9.32;8.48;;;22.00;30.40;;;;;;6188296;23;20211;-73
2022/03/22 08:20:23;;;;;;;8.65;7.90;;;22.00;30.20;;;;;;6161650;23;20271;-73
2022/03/22 08:22:52;;;;;;;8.35;7.47;;;22.10;30.10;;;;;;6161342;23;20562;-73
2022/03/22 08:25:22;;;;;;;9.55;8.65;;;22.30;30.10;;;;;;6190351;23;20168;-73
2022/03/22 08:27:49;;;;;;;9.30;8.40;;;22.30;30.00;;;;;;6190048;23;20176;-73
2022/03/22 08:30:20;;;;;;;8.45;7.65;;;22.40;29.90;;;;;;6168304;23;20670;-73
2022/03/22 08:32:49;;;;;;;7.75;7.00;;;22.40;29.90;;;;;;6165862;23;20176;-73
2022/03/22 08:35:16;;;;;;;9.18;8.38;;;22.50;29.90;;;;;;6163820;23;20176;-73
2022/03/22 08:37:43;;;;;;;8.32;7.63;;;22.60;29.80;;;;;;6189114;23;20188;-73
2022/03/22 08:40:13;;;;;;;8.45;7.63;;;22.60;29.70;;;;;;6161352;23;20658;-73
2022/03/22 08:42:43;;;;;;;8.05;7.35;;;22.70;29.70;;;;;;6187954;23;20179;-73
2022/03/22 08:45:11;;;;;;;7.32;6.72;;;22.70;29.70;;;;;;6161951;23;20222;-73
2022/03/22 08:47:40;;;;;;;7.88;7.18;;;22.80;29.70;;;;;;6162786;23;20194;-73
2022/03/22 08:50:10;;;;;;;8.65;7.75;;;22.80;30.10;;;;;;6162448;23;20246;-74
2022/03/22 08:52:38;;;;;;;8.50;7.80;;;22.90;29.70;;;;;;6162514;23;20164;-73
2022/03/22 08:55:07;;;;;;;7.97;7.28;;;23.00;29.50;;;;;;6161526;23;20234;-72
2022/03/22 08:57:34;;;;;;;7.90;7.28;;;23.00;29.40;;;;;;6161260;23;20611;-73
2022/03/22 09:00:01;;;;;;;8.20;7.43;;;23.10;29.40;;;;;;6161235;23;20191;-73
2022/03/22 09:02:29;;;;;;;7.88;7.18;;;23.00;29.70;;;;;;6187450;23;20169;-73
2022/03/22 09:07:42;;;;;;;8.70;7.53;;;23.20;29.30;;;;;;6161737;23;20192;-73
2022/03/22 09:10:09;;;;;;;7.43;6.72;;;23.20;29.20;;;;;;6187398;23;20189;-73
2022/03/22 09:12:37;;;;;;;7.88;7.07;;;23.20;29.10;;;;;;6160793;23;20176;-73
2022/03/22 09:15:04;;;;;;;7.15;6.55;;;23.30;29.10;;;;;;6161036;23;20630;-73
2022/03/22 09:17:32;;;;;;;6.72;6.10;;;23.30;29.10;;;;;;6161218;23;20251;-72
2022/03/22 09:19:59;;;;;;;7.30;6.60;;;23.30;29.10;;;;;;6160848;23;20200;-73
2022/03/22 09:22:26;;;;;;;8.30;7.50;;;23.30;29.10;;;;;;6161106;23;20176;-73
2022/03/22 09:24:55;;;;;;;7.65;7.05;;;23.40;29.10;;;;;;6160887;23;20172;-73
2022/03/22 09:27:22;;;;;;;7.03;6.43;;;23.40;29.10;;;;;;6160640;23;20195;-72
2022/03/22 09:29:49;;;;;;;6.18;5.68;;;23.40;29.00;;;;;;6160613;23;20199;-73
2022/03/22 09:32:16;;;;;;;7.00;6.15;;;23.50;29.00;;;;;;6160543;23;20176;-74
2022/03/22 09:34:44;;;;;;;7.15;6.55;;;23.50;29.00;;;;;;6160370;23;20173;-71
2022/03/22 09:37:16;;;;;;;7.00;6.40;;;23.50;28.90;;;;;;6160721;23;20207;-73
2022/03/22 09:39:43;;;;;;;7.05;6.45;;;23.50;28.90;;;;;;6161620;23;20203;-73
2022/03/22 09:42:12;;;;;;;7.18;6.47;;;23.60;28.90;;;;;;6160935;23;20179;-73
2022/03/22 09:44:39;;;;;;;7.03;6.43;;;23.60;28.90;;;;;;6188899;23;20168;-73
2022/03/22 09:47:07;;;;;;;6.50;5.90;;;23.60;28.90;;;;;;6161596;23;20194;-73
2022/03/22 09:49:37;;;;;;;7.10;6.43;;;23.60;28.90;;;;;;6161092;23;20216;-73
2022/03/22 09:52:06;;;;;;;6.78;6.18;;;23.60;28.90;;;;;;6160484;23;20191;-73
2022/03/22 09:54:33;;;;;;;6.55;6.05;;;23.60;28.90;;;;;;6160425;23;20176;-73
2022/03/22 09:57:04;;;;;;;6.80;6.20;;;23.60;28.80;;;;;;6161422;23;20490;-73
2022/03/22 09:59:33;;;;;;;7.00;6.50;;;23.60;28.80;;;;;;6161354;23;20226;-73
2022/03/22 10:02:01;;;;;;;6.78;6.07;;;23.60;28.80;;;;;;6161241;23;20178;-73
2022/03/22 10:04:36;;;;;;;6.32;5.82;;;23.70;28.90;;;;;;6160251;23;20176;-73
2022/03/22 10:07:06;;;;;;;6.75;6.15;;;23.70;28.90;;;;;;6160350;23;20187;-73
2022/03/22 10:09:36;;;;;;;6.82;6.25;;;23.70;28.90;;;;;;6186504;23;20188;-73
2022/03/22 10:12:03;;;;;;;6.65;5.97;;;23.60;29.40;;;;;;6187100;23;20164;-73
2022/03/22 10:14:36;;;;;;;6.90;6.30;;;23.70;29.00;;;;;;6160163;23;20255;-73
2022/03/22 10:17:11;;;;;;;6.53;5.95;;;23.70;29.00;;;;;;6160165;23;20564;-73
2022/03/22 10:19:43;;;;;;;6.13;5.63;;;23.60;28.90;;;;;;6186745;23;20235;-73
2022/03/22 10:22:11;;;;;;;6.45;5.95;;;23.60;29.00;;;;;;6159830;23;20206;-74
2022/03/22 10:24:45;;;;;;;6.65;6.05;;;23.60;29.00;;;;;;6186500;23;20225;-73
2022/03/22 10:27:22;;;;;;;6.95;6.35;;;23.60;29.00;;;;;;6159900;23;20218;-73
2022/03/22 10:29:51;;;;;;;6.47;5.88;;;23.60;29.00;;;;;;6159834;23;20716;-73
2022/03/22 10:32:19;;;;;;;6.65;5.78;;;23.60;29.00;;;;;;6160113;23;20195;-73
2022/03/22 10:34:46;;;;;;;6.90;5.88;;;23.60;29.10;;;;;;6160000;23;20172;-73
2022/03/22 10:37:13;;;;;;;6.93;6.32;;;23.50;29.10;;;;;;6185979;23;20235;-73
2022/03/22 10:39:41;;;;;;;6.47;5.90;;;23.50;29.10;;;;;;6159716;23;20594;-73
2022/03/22 10:42:09;;;;;;;6.20;5.70;;;23.50;29.20;;;;;;6159190;23;20172;-73
2022/03/22 10:44:36;;;;;;;6.43;5.82;;;23.50;29.20;;;;;;6159590;23;20631;-74
2022/03/22 10:47:07;;;;;;;6.90;6.30;;;23.50;29.30;;;;;;6159725;23;20175;-73
2022/03/22 10:49:34;;;;;;;6.60;6.00;;;23.40;29.20;;;;;;6186242;23;20184;-73
2022/03/22 10:52:01;;;;;;;6.32;5.82;;;23.40;29.40;;;;;;6159504;23;20195;-73
2022/03/22 10:54:29;;;;;;;6.35;5.80;;;23.40;29.40;;;;;;6185774;23;20172;-74
2022/03/22 10:56:56;;;;;;;6.70;6.10;;;23.40;29.50;;;;;;6159476;23;20255;-73
2022/03/22 10:59:25;;;;;;;6.70;6.10;;;23.40;29.50;;;;;;6159494;23;20199;-73
2022/03/22 11:01:55;;;;;;;5.88;5.38;;;23.30;29.50;;;;;;6159199;23;20200;-73
2022/03/22 11:04:24;;;;;;;6.00;5.25;;;23.30;29.60;;;;;;6159325;23;20168;-74
2022/03/22 11:06:51;;;;;;;5.88;5.47;;;23.20;29.60;;;;;;6161729;23;20176;-73
2022/03/22 11:09:20;;;;;;;6.40;5.90;;;23.20;29.70;;;;;;6161371;23;20677;-74
2022/03/22 11:11:49;;;;;;;6.43;5.93;;;23.20;29.80;;;;;;6187577;23;20170;-73
2022/03/22 11:14:17;;;;;;;6.03;5.53;;;23.20;29.90;;;;;;6161348;23;20207;-73
2022/03/22 11:16:46;;;;;;;6.40;5.80;;;23.10;29.90;;;;;;6161390;23;20168;-74
2022/03/22 11:19:13;;;;;;;5.90;5.40;;;23.10;29.90;;;;;;6161302;23;20219;-74
2022/03/22 11:21:42;;;;;;;6.65;6.05;;;23.10;29.90;;;;;;6161490;23;20623;-73
2022/03/22 11:24:10;;;;;;;6.32;5.82;;;23.10;29.90;;;;;;6161032;23;20212;-73
2022/03/22 11:26:41;;;;;;;6.38;5.78;;;23.10;30.00;;;;;;6161329;23;20176;-73
2022/03/22 11:29:10;;;;;;;6.45;5.95;;;23.10;30.00;;;;;;6161230;23;20278;-73
2022/03/22 11:31:38;;;;;;;5.78;5.38;;;23.10;29.90;;;;;;6161155;23;20172;-73
2022/03/22 11:34:11;;;;;;;6.18;5.68;;;23.10;29.90;;;;;;6161223;23;20174;-73
2022/03/22 11:36:43;;;;;;;6.00;5.55;;;23.10;29.90;;;;;;6187489;23;20148;-73
2022/03/22 11:39:10;;;;;;;6.60;5.97;;;23.00;29.80;;;;;;6160970;23;20185;-73
2022/03/22 11:44:27;;;;;;;6.82;5.85;;;23.00;30.00;;;;;;6187766;23;20172;-73
2022/03/22 11:47:03;;;;;;;5.82;5.32;;;23.00;30.00;;;;;;6161077;23;20238;-73
2022/03/22 11:49:30;;;;;;;6.15;5.65;;;23.00;30.10;;;;;;6187265;23;20246;-73
2022/03/22 11:51:59;;;;;;;6.78;6.18;;;23.00;30.20;;;;;;6160917;23;20522;-73
2022/03/22 11:54:27;;;;;;;6.07;5.57;;;23.00;30.10;;;;;;6187344;23;20219;-73
2022/03/22 11:56:58;;;;;;;6.00;5.50;;;23.00;30.10;;;;;;6187643;23;20164;-73
2022/03/22 11:59:25;;;;;;;6.60;6.00;;;23.00;30.30;;;;;;6161280;23;20195;-73
2022/03/22 12:02:03;;;;;;;6.85;6.25;;;23.00;30.30;;;;;;6161001;23;20199;-73
2022/03/22 12:04:43;;;;;;;6.13;5.53;;;23.00;30.30;;;;;;6187568;23;20168;-74
2022/03/22 12:07:12;;;;;;;6.47;5.88;;;23.00;30.50;;;;;;6187637;23;20153;-73
2022/03/22 12:09:40;;;;;;;7.00;6.35;;;23.00;30.70;;;;;;6160622;23;20206;-73
2022/03/22 12:12:10;;;;;;;7.07;6.35;;;23.00;30.70;;;;;;6160946;23;20172;-73
2022/03/22 12:14:37;;;;;;;6.53;6.00;;;23.00;30.50;;;;;;6162115;23;20164;-74
2022/03/22 12:17:05;;;;;;;6.25;5.75;;;22.90;30.50;;;;;;6160995;23;20203;-74
2022/03/22 12:19:34;;;;;;;6.65;6.05;;;23.00;30.80;;;;;;6161081;23;20188;-73
2022/03/22 12:22:01;;;;;;;6.15;5.65;;;23.00;30.70;;;;;;6161124;23;20176;-73
2022/03/22 12:24:33;;;;;;;5.93;5.43;;;22.90;30.80;;;;;;6187444;23;20170;-74
2022/03/22 12:27:01;;;;;;;6.10;5.60;;;23.00;31.00;;;;;;6161813;23;20172;-73
2022/03/22 12:29:29;;;;;;;6.15;5.65;;;22.90;30.90;;;;;;6186989;23;20196;-73
2022/03/22 12:31:56;;;;;;;6.05;5.55;;;23.00;31.00;;;;;;6160774;23;20179;-74
2022/03/22 12:34:26;;;;;;;6.55;5.95;;;23.00;31.10;;;;;;6160715;23;20618;-73
2022/03/22 12:36:53;;;;;;;5.72;5.25;;;23.00;30.90;;;;;;6160786;23;20176;-74
2022/03/22 12:39:21;;;;;;;6.40;5.90;;;23.00;30.90;;;;;;6186892;23;20569;-73
2022/03/22 12:41:49;;;;;;;6.28;5.68;;;23.00;30.90;;;;;;6187186;23;20168;-74
2022/03/22 12:44:16;;;;;;;5.95;5.45;;;23.00;31.00;;;;;;6170260;22;20196;-67
2022/03/22 12:46:43;;;;;;;5.95;5.45;;;23.00;31.00;;;;;;6220370;23;20170;-67
2022/03/22 12:49:10;;;;;;;5.95;5.53;;;23.00;31.20;;;;;;6247576;23;20179;-68
2022/03/22 12:51:38;;;;;;;5.70;5.30;;;23.00;31.30;;;;;;6247140;23;20250;-68
2022/03/22 12:54:09;;;;;;;5.95;5.40;;;22.90;31.20;;;;;;6195142;23;20209;-68
2022/03/22 12:56:36;;;;;;;5.90;5.45;;;22.90;31.30;;;;;;6189738;23;20183;-67
2022/03/22 12:59:05;;;;;;;6.13;5.63;;;22.90;31.30;;;;;;6216444;23;20194;-67
2022/03/22 13:01:42;;;;;;;6.38;5.78;;;22.80;31.20;;;;;;6216496;23;20184;-68
2022/03/22 13:04:09;;;;;;;5.25;4.85;;;22.80;31.40;;;;;;6216378;23;20210;-68
2022/03/22 13:06:36;;;;;;;6.28;5.78;;;22.90;31.50;;;;;;6189899;23;20206;-67
2022/03/22 13:11:48;;;;;;;6.50;6.00;;;22.80;31.40;;;;;;6189726;23;20164;-68
2022/03/22 13:17:02;;;;;;;6.95;6.35;;;22.80;31.20;;;;;;6189728;23;20175;-68
2022/03/22 13:19:31;;;;;;;6.70;6.10;;;22.80;31.20;;;;;;6189531;23;20168;-67
2022/03/22 13:21:58;;;;;;;7.20;6.57;;;22.80;31.40;;;;;;6189679;23;20232;-67
2022/03/22 13:24:26;;;;;;;7.30;6.65;;;22.80;31.00;;;;;;6216384;23;20262;-68
2022/03/22 13:26:55;;;;;;;6.80;6.20;;;22.80;30.40;;;;;;6216294;23;20194;-67
2022/03/22 13:29:23;;;;;;;7.03;6.43;;;22.80;30.90;;;;;;6216363;23;20634;-68
2022/03/22 13:31:55;;;;;;;6.25;5.75;;;22.80;31.00;;;;;;6189720;23;20199;-68